Craft, Texas
Current Conditions -  °F | °C
As of 10:15 AM on Friday 24 Oct 2014 (Local Time) from KJSO Reporting Station
Clear Clear  
Wind Chill: 64°   Ceiling: Unl
Heat Index: 64°   Visibility: 10mi
Dew Point: 52°   Wind: 0mph
Humidity: 66%   Direction: NA
Pressure: 30.21"   Gusts: NA
Location:  31.9649°N, 95.3036°W
Report Text: KJSO 241515Z AUTO 00000KT 10SM CLR 17/11 A3021 RMK AO2 T01770113
Loading
Personal Weather Stations






























Interactive Weather Map
Tropical Storm Tracking
New forecast layout! Learn more

10-Day Weather Forecast

Advertisements
Track Severe Weather on mobile